Time;durP1;ratioP1;P1;durP2;ratioP2;P2;SDS_P1;SDS_P2;PMS_P1;PMS_P2;Temp;Humidity;BMP_temperature;BMP_pressure;BME280_temperature;BME280_humidity;BME280_pressure;Samples;Min_cycle;Max_cycle;Signal;HPM_P1;HPM_P2
2023/01/17 00:02:06;;;;;;;15.57;2.10;;;;;;;2.53;100.00;98384.94;5066312;28;20623;-74
2023/01/17 00:10:08;;;;;;;7.70;2.30;;;;;;;2.42;100.00;98386.97;5066827;28;20046;-74
2023/01/17 00:12:34;;;;;;;5.90;2.10;;;;;;;2.36;100.00;98400.78;5048221;28;20589;-74
2023/01/17 00:15:00;;;;;;;3.78;1.90;;;;;;;2.26;100.00;98404.50;5066859;28;20054;-74
2023/01/17 00:17:27;;;;;;;3.33;1.75;;;;;;;2.17;100.00;98407.34;5046662;28;20107;-74
2023/01/17 01:35:12;;;;;;;3.63;0.73;;;;;;;0.98;100.00;98556.75;5064184;28;20047;-74
2023/01/17 01:37:37;;;;;;;1.85;0.63;;;;;;;1.00;100.00;98563.50;5064470;28;20028;-74
2023/01/17 01:40:03;;;;;;;4.40;1.02;;;;;;;1.01;100.00;98561.81;5046743;28;20044;-74
2023/01/17 01:42:28;;;;;;;1.90;0.73;;;;;;;0.99;100.00;98563.53;5063124;28;20023;-74
2023/01/17 01:44:54;;;;;;;3.33;0.90;;;;;;;0.95;100.00;98567.03;5063979;28;20032;-74
2023/01/17 01:47:31;;;;;;;5.93;0.95;;;;;;;0.89;100.00;98567.19;5065048;28;20089;-74
2023/01/17 01:49:59;;;;;;;2.60;1.30;;;;;;;0.89;100.00;98577.38;5064363;28;20479;-73
2023/01/17 01:52:27;;;;;;;4.90;1.00;;;;;;;0.90;100.00;98584.13;5064307;28;20197;-74
2023/01/17 01:55:04;;;;;;;4.35;1.02;;;;;;;0.95;100.00;98584.91;5064915;28;20118;-74
2023/01/17 01:57:37;;;;;;;3.92;1.35;;;;;;;0.97;100.00;98594.19;5069634;28;20028;-74
2023/01/17 02:00:14;;;;;;;7.55;1.23;;;;;;;0.97;100.00;98604.38;5071274;28;20444;-74
2023/01/17 02:02:41;;;;;;;8.45;1.80;;;;;;;0.97;100.00;98600.97;5069894;28;20106;-74
2023/01/17 02:05:09;;;;;;;5.55;1.63;;;;;;;0.93;100.00;98601.94;5071725;28;20024;-73
2023/01/17 02:07:49;;;;;;;7.93;1.98;;;;;;;0.86;100.00;98598.66;5071289;28;20642;-73
2023/01/17 02:10:15;;;;;;;6.00;1.73;;;;;;;0.75;100.00;98603.16;5053204;28;20024;-74
2023/01/17 02:12:41;;;;;;;4.22;1.80;;;;;;;0.71;100.00;98604.91;5053019;28;20111;-73
2023/01/17 02:15:06;;;;;;;4.78;1.88;;;;;;;0.71;100.00;98607.47;5052800;28;20083;-73
2023/01/17 02:18:01;;;;;;;4.35;2.13;;;;;;;0.64;100.00;98608.47;5070141;28;20421;-74
2023/01/17 02:20:53;;;;;;;4.18;2.22;;;;;;;0.59;100.00;98620.47;5071372;28;20059;-74
2023/01/17 02:23:35;;;;;;;5.00;2.30;;;;;;;0.64;100.00;98623.75;5067876;28;20062;-74
2023/01/17 02:26:22;;;;;;;6.82;3.03;;;;;;;0.72;100.00;98627.00;5070318;28;20020;-73
2023/01/17 02:29:09;;;;;;;5.70;3.20;;;;;;;0.77;100.00;98621.78;5071692;28;20033;-73
2023/01/17 02:31:46;;;;;;;7.80;3.78;;;;;;;0.75;100.00;98628.66;5052618;28;20070;-73
2023/01/17 02:34:16;;;;;;;7.95;4.20;;;;;;;0.79;100.00;98636.22;5070666;28;20031;-73
2023/01/17 02:36:59;;;;;;;7.80;4.22;;;;;;;0.85;100.00;98631.84;5054386;28;20028;-74
2023/01/17 02:39:32;;;;;;;8.85;4.72;;;;;;;0.90;100.00;98635.97;5070360;28;20126;-73
2023/01/17 02:42:03;;;;;;;9.05;4.82;;;;;;;0.92;100.00;98629.16;5070041;28;20494;-74
2023/01/17 02:44:29;;;;;;;12.10;4.90;;;;;;;0.90;100.00;98622.38;5070294;28;20103;-74
2023/01/17 02:46:55;;;;;;;10.90;5.07;;;;;;;0.83;100.00;98621.66;5070629;28;20127;-73
2023/01/17 02:49:26;;;;;;;11.15;5.22;;;;;;;0.73;100.00;98617.66;5069324;28;20036;-74
2023/01/17 02:52:04;;;;;;;9.85;4.47;;;;;;;0.64;100.00;98622.91;5068982;28;20051;-73
2023/01/17 02:54:53;;;;;;;9.00;4.07;;;;;;;0.55;100.00;98621.38;5069936;28;20032;-73
2023/01/17 02:57:28;;;;;;;5.30;3.25;;;;;;;0.50;100.00;98632.53;5070719;28;20056;-73
2023/01/17 02:59:57;;;;;;;8.73;2.90;;;;;;;0.47;100.00;98627.50;5070007;28;20086;-73
2023/01/17 03:02:33;;;;;;;5.20;2.78;;;;;;;0.46;100.00;98633.47;5069722;28;20036;-73
2023/01/17 03:05:20;;;;;;;7.30;2.75;;;;;;;0.44;100.00;98630.94;5070496;28;20027;-73
2023/01/17 03:07:47;;;;;;;5.97;2.22;;;;;;;0.45;100.00;98639.44;5065286;28;20028;-73
2023/01/17 03:10:15;;;;;;;5.68;1.90;;;;;;;0.43;100.00;98639.44;5066961;28;20456;-74
2023/01/17 03:12:41;;;;;;;3.75;1.80;;;;;;;0.37;100.00;98630.22;5066463;28;20113;-73
2023/01/17 03:15:09;;;;;;;4.03;2.10;;;;;;;0.34;100.00;98637.09;5067454;28;20063;-73
2023/01/17 03:17:35;;;;;;;3.35;1.70;;;;;;;0.25;100.00;98643.19;5066067;28;20112;-73
2023/01/17 03:20:01;;;;;;;4.95;2.08;;;;;;;0.16;100.00;98643.34;5066541;28;20107;-73
2023/01/17 03:22:26;;;;;;;4.20;1.58;;;;;;;0.09;100.00;98653.66;5066244;28;20024;-74
2023/01/17 03:24:51;;;;;;;3.22;1.90;;;;;;;0.02;100.00;98665.66;5066328;28;20085;-74
2023/01/17 03:27:16;;;;;;;3.97;1.73;;;;;;;-0.06;100.00;98670.88;5066725;28;20044;-73
2023/01/17 03:29:42;;;;;;;4.32;1.50;;;;;;;-0.10;100.00;98673.50;5049424;28;20071;-74
2023/01/17 03:32:07;;;;;;;4.63;1.65;;;;;;;-0.15;100.00;98665.94;5048606;28;20032;-73
2023/01/17 03:34:32;;;;;;;4.13;1.40;;;;;;;-0.20;100.00;98679.56;5048540;28;20027;-73
2023/01/17 03:36:58;;;;;;;5.70;1.48;;;;;;;-0.25;100.00;98677.13;5066360;28;20028;-73
2023/01/17 03:39:23;;;;;;;5.35;1.50;;;;;;;-0.28;100.00;98674.63;5048379;28;20020;-74
2023/01/17 03:41:48;;;;;;;4.28;1.38;;;;;;;-0.32;100.00;98669.59;5066320;28;20032;-73
2023/01/17 03:44:14;;;;;;;4.80;1.13;;;;;;;-0.35;100.00;98675.59;5066641;28;20024;-73
2023/01/17 03:46:39;;;;;;;2.40;1.23;;;;;;;-0.40;100.00;98669.69;5065861;28;20028;-73
2023/01/17 03:49:04;;;;;;;2.05;1.00;;;;;;;-0.42;100.00;98681.63;5066940;28;20114;-73
2023/01/17 03:51:30;;;;;;;2.08;1.10;;;;;;;-0.42;100.00;98679.94;5066724;28;20021;-73
2023/01/17 03:53:55;;;;;;;2.72;0.77;;;;;;;-0.40;100.00;98680.72;5066119;28;20023;-73
2023/01/17 03:56:20;;;;;;;5.45;0.85;;;;;;;-0.42;100.00;98674.84;5065465;28;20108;-73
2023/01/17 03:58:46;;;;;;;5.18;0.77;;;;;;;-0.41;100.00;98685.84;5066923;28;20024;-73
2023/01/17 04:01:11;;;;;;;6.25;1.10;;;;;;;-0.39;100.00;98691.75;5066389;28;20036;-74
2023/01/17 04:03:38;;;;;;;2.47;0.80;;;;;;;-0.33;100.00;98688.25;5064826;28;20033;-73
2023/01/17 04:06:03;;;;;;;3.88;0.80;;;;;;;-0.30;100.00;98688.22;5066380;28;20138;-73
2023/01/17 04:08:29;;;;;;;5.53;1.08;;;;;;;-0.33;100.00;98681.47;5066702;28;20044;-73
2023/01/17 04:10:54;;;;;;;2.95;0.77;;;;;;;-0.37;100.00;98689.19;5065503;28;20120;-73
2023/01/17 04:13:20;;;;;;;2.95;0.77;;;;;;;-0.35;100.00;98690.84;5048169;28;20033;-73
2023/01/17 04:15:47;;;;;;;5.03;1.00;;;;;;;-0.22;100.00;98694.06;5047455;28;20500;-73
2023/01/17 04:18:16;;;;;;;5.97;1.20;;;;;;;-0.13;100.00;98694.75;5064663;28;20047;-73
2023/01/17 04:20:41;;;;;;;5.40;1.15;;;;;;;-0.11;100.00;98694.72;5047581;28;20066;-73
2023/01/17 04:23:06;;;;;;;5.20;1.17;;;;;;;-0.16;100.00;98692.25;5066203;28;20186;-73
2023/01/17 04:25:32;;;;;;;3.97;1.00;;;;;;;-0.22;100.00;98692.34;5065122;28;20359;-74
2023/01/17 04:27:59;;;;;;;3.25;1.05;;;;;;;-0.30;100.00;98685.69;5066001;28;20067;-73
2023/01/17 04:30:26;;;;;;;3.05;1.00;;;;;;;-0.38;100.00;98690.88;5065147;28;20443;-73
2023/01/17 04:32:51;;;;;;;2.05;1.05;;;;;;;-0.46;100.00;98683.34;5064824;28;20528;-73
2023/01/17 04:35:17;;;;;;;2.45;1.10;;;;;;;-0.54;100.00;98686.88;5065482;28;20541;-73
2023/01/17 04:37:42;;;;;;;4.25;1.20;;;;;;;-0.60;100.00;98681.88;5065864;28;20641;-73
2023/01/17 04:40:09;;;;;;;3.72;1.27;;;;;;;-0.65;100.00;98681.09;5065616;28;20439;-74
2023/01/17 04:42:35;;;;;;;3.85;1.10;;;;;;;-0.68;100.00;98678.59;5065897;28;20032;-74
2023/01/17 04:45:00;;;;;;;2.33;1.08;;;;;;;-0.69;100.00;98674.38;5065437;28;20540;-74
2023/01/17 04:47:26;;;;;;;6.43;2.08;;;;;;;-0.70;100.00;98680.31;5064214;28;20044;-74
2023/01/17 04:49:52;;;;;;;5.10;1.20;;;;;;;-0.71;100.00;98678.63;5065740;28;20471;-73
2023/01/17 04:52:19;;;;;;;3.40;1.25;;;;;;;-0.73;100.00;98682.91;5065209;28;20081;-73
2023/01/17 04:54:48;;;;;;;8.48;1.20;;;;;;;-0.75;100.00;98688.00;5065312;28;20035;-73
2023/01/17 04:57:15;;;;;;;4.85;1.30;;;;;;;-0.75;100.00;98687.19;5065434;28;20028;-73
2023/01/17 04:59:40;;;;;;;3.97;1.48;;;;;;;-0.77;100.00;98686.34;5065159;28;20032;-73
2023/01/17 05:02:06;;;;;;;3.97;1.40;;;;;;;-0.82;100.00;98686.44;5064206;28;20035;-73
2023/01/17 05:04:31;;;;;;;6.82;1.67;;;;;;;-0.81;100.00;98685.53;5065607;28;20271;-73
2023/01/17 05:06:56;;;;;;;6.95;1.80;;;;;;;-0.85;100.00;98692.38;5065209;28;20214;-73
2023/01/17 05:09:22;;;;;;;8.85;1.80;;;;;;;-0.90;100.00;98694.16;5065261;28;20028;-73
2023/01/17 05:11:47;;;;;;;7.75;1.80;;;;;;;-0.93;100.00;98694.16;5064611;28;20027;-73
2023/01/17 05:14:12;;;;;;;6.45;1.98;;;;;;;-0.93;100.00;98691.63;5064482;28;20028;-73
2023/01/17 05:16:38;;;;;;;11.57;2.30;;;;;;;-0.94;100.00;98697.56;5064566;28;20044;-73
2023/01/17 05:19:03;;;;;;;10.18;2.60;;;;;;;-0.97;100.00;98689.16;5065148;28;20029;-73
2023/01/17 05:21:30;;;;;;;12.30;2.80;;;;;;;-0.94;100.00;98701.81;5059398;28;20020;-73
2023/01/17 05:24:33;;;;;;;9.25;2.75;;;;;;;-0.95;100.00;98703.50;5116367;23;20053;-96
2023/01/17 05:27:01;;;;;;;10.25;3.13;;;;;;;-1.06;100.00;98684.16;5034071;28;20025;-96
2023/01/17 05:29:31;;;;;;;12.65;3.78;;;;;;;-1.03;100.00;98687.53;5036604;28;20026;-96
2023/01/17 05:31:56;;;;;;;9.57;3.42;;;;;;;-0.99;100.00;98694.25;5034445;28;20362;-96
2023/01/17 05:34:36;;;;;;;13.00;3.60;;;;;;;-1.00;100.00;98700.19;5037160;28;20017;-96
2023/01/17 05:37:08;;;;;;;16.00;4.13;;;;;;;-1.06;100.00;98686.72;5029370;28;20014;-96
2023/01/17 05:39:34;;;;;;;14.25;3.92;;;;;;;-0.95;100.00;98689.94;5032512;23;20020;-73
2023/01/17 05:41:59;;;;;;;12.90;4.22;;;;;;;-0.94;100.00;98709.44;5128390;22;20049;-72
2023/01/17 05:44:26;;;;;;;13.68;4.07;;;;;;;-1.01;100.00;98692.56;5063311;22;20053;-95
2023/01/17 05:46:52;;;;;;;14.57;4.32;;;;;;;-1.08;100.00;98690.97;5031453;28;20128;-96
2023/01/17 05:49:17;;;;;;;18.67;4.38;;;;;;;-1.15;100.00;98687.66;5030893;28;20491;-95
2023/01/17 05:51:43;;;;;;;17.95;4.47;;;;;;;-1.13;100.00;98708.81;5051152;28;20085;-96
2023/01/17 05:54:08;;;;;;;14.93;4.38;;;;;;;-1.19;100.00;98703.81;5056973;28;20111;-96
2023/01/17 05:56:35;;;;;;;12.20;4.45;;;;;;;-1.20;100.00;98712.28;5034528;28;20095;-95
2023/01/17 05:59:00;;;;;;;17.83;5.22;;;;;;;-1.20;100.00;98714.81;5034097;28;20017;-94
2023/01/17 06:01:26;;;;;;;16.27;5.28;;;;;;;-1.18;100.00;98732.59;5040083;23;20092;-72
2023/01/17 06:03:52;;;;;;;15.73;5.32;;;;;;;-1.21;100.00;98725.84;5003251;28;21595;-72
2023/01/17 06:06:17;;;;;;;14.80;5.15;;;;;;;-1.25;100.00;98735.22;5025018;28;20061;-72
2023/01/17 06:08:42;;;;;;;18.00;5.43;;;;;;;-1.24;100.00;98733.50;5008305;28;20048;-72
2023/01/17 06:11:08;;;;;;;13.50;5.55;;;;;;;-1.26;100.00;98730.13;5026030;28;20033;-72
2023/01/17 06:13:33;;;;;;;17.27;5.70;;;;;;;-1.27;100.00;98731.84;5025324;28;20052;-72
2023/01/17 06:16:02;;;;;;;17.45;5.68;;;;;;;-1.28;100.00;98729.31;5023392;28;20029;-72
2023/01/17 06:18:29;;;;;;;16.67;5.20;;;;;;;-1.27;100.00;98733.53;5026492;28;20678;-72
2023/01/17 06:20:55;;;;;;;17.13;5.95;;;;;;;-1.29;100.00;98741.16;5026482;28;20064;-72
2023/01/17 06:23:21;;;;;;;22.05;6.28;;;;;;;-1.30;100.00;98736.97;5026692;28;20067;-72
2023/01/17 06:25:47;;;;;;;19.00;6.00;;;;;;;-1.30;100.00;98739.50;5024318;28;20083;-72
2023/01/17 06:28:18;;;;;;;18.70;6.18;;;;;;;-1.33;100.00;98733.59;5021061;28;20025;-72
2023/01/17 06:30:48;;;;;;;20.65;6.88;;;;;;;-1.33;100.00;98744.59;5095108;23;20108;-96
2023/01/17 06:33:14;;;;;;;17.77;6.38;;;;;;;-1.35;100.00;98736.16;5026463;28;20025;-92
2023/01/17 06:35:45;;;;;;;25.83;7.72;;;;;;;-1.46;100.00;98721.88;5031591;28;20420;-94
2023/01/17 06:38:11;;;;;;;21.55;7.18;;;;;;;-1.39;100.00;98741.28;5049772;28;20029;-94
2023/01/17 06:40:36;;;;;;;21.30;7.88;;;;;;;-1.47;100.00;98727.81;5048110;28;20025;-94
2023/01/17 06:43:10;;;;;;;25.17;8.02;;;;;;;-1.44;100.00;98737.97;5034670;28;20029;-95
2023/01/17 06:45:35;;;;;;;26.52;9.30;;;;;;;-1.52;100.00;98727.03;5056290;28;20040;-95
2023/01/17 06:48:04;;;;;;;25.55;8.43;;;;;;;-1.48;100.00;98737.13;5034898;28;20025;-96
2023/01/17 06:50:30;;;;;;;28.42;9.95;;;;;;;-1.47;100.00;98735.44;5044369;28;20021;-96
2023/01/17 06:52:58;;;;;;;25.60;9.00;;;;;;;-1.54;100.00;98731.25;5057596;28;20029;-95
2023/01/17 06:55:27;;;;;;;24.95;8.98;;;;;;;-1.55;100.00;98732.13;5056084;28;20473;-96
2023/01/17 06:57:54;;;;;;;27.60;10.15;;;;;;;-1.47;100.00;98756.59;5056870;28;20021;-96
2023/01/17 07:00:20;;;;;;;23.90;9.82;;;;;;;-1.60;100.00;98738.09;5055181;28;20473;-94
2023/01/17 07:02:49;;;;;;;23.05;9.60;;;;;;;-1.57;100.00;98741.47;5053768;28;20024;-95
2023/01/17 07:05:16;;;;;;;28.50;10.23;;;;;;;-1.50;100.00;98760.88;5055433;28;20066;-94
2023/01/17 07:07:47;;;;;;;26.65;9.95;;;;;;;-1.65;100.00;98744.06;5073372;28;20033;-96
2023/01/17 07:10:16;;;;;;;31.58;10.98;;;;;;;-1.64;100.00;98754.19;5057757;28;20025;-96
2023/01/17 07:12:41;;;;;;;24.83;10.32;;;;;;;-1.61;100.00;98759.25;5092814;23;20024;-73
2023/01/17 07:15:08;;;;;;;27.13;10.65;;;;;;;-1.61;100.00;98756.72;5045884;28;20040;-72
2023/01/17 07:17:34;;;;;;;27.88;10.38;;;;;;;-1.62;100.00;98752.50;5046191;28;20029;-72
2023/01/17 07:19:59;;;;;;;30.27;11.80;;;;;;;-1.64;100.00;98766.09;5047196;28;20029;-72
2023/01/17 07:22:24;;;;;;;32.42;11.20;;;;;;;-1.64;100.00;98768.63;5047660;28;20518;-72
2023/01/17 07:24:52;;;;;;;30.15;11.95;;;;;;;-1.67;100.00;98758.47;5048096;28;20021;-72
2023/01/17 07:27:17;;;;;;;30.42;11.57;;;;;;;-1.69;100.00;98760.19;5028635;28;20106;-72
2023/01/17 07:29:43;;;;;;;28.38;11.82;;;;;;;-1.69;100.00;98773.72;5046901;28;20486;-72
2023/01/17 07:32:09;;;;;;;26.95;10.73;;;;;;;-1.71;100.00;98770.38;5042431;28;20036;-72
2023/01/17 07:34:35;;;;;;;32.88;11.48;;;;;;;-1.73;100.00;98776.31;5045932;28;20386;-72
2023/01/17 07:37:00;;;;;;;24.88;10.70;;;;;;;-1.76;100.00;98772.06;5046620;28;20474;-72
2023/01/17 07:39:26;;;;;;;31.88;11.38;;;;;;;-1.77;100.00;98775.47;5046601;28;20090;-72
2023/01/17 07:41:51;;;;;;;29.85;11.63;;;;;;;-1.76;100.00;98779.69;5044685;28;20479;-72
2023/01/17 07:44:16;;;;;;;25.23;11.02;;;;;;;-1.75;100.00;98778.84;5046828;28;20017;-72
2023/01/17 07:46:42;;;;;;;26.23;10.48;;;;;;;-1.75;100.00;98781.38;5047121;28;20106;-72
2023/01/17 07:49:07;;;;;;;30.38;11.20;;;;;;;-1.75;100.00;98785.63;5047748;28;20024;-72
2023/01/17 07:51:32;;;;;;;29.75;11.27;;;;;;;-1.75;100.00;98783.94;5048073;28;20107;-72
2023/01/17 07:53:58;;;;;;;34.70;12.02;;;;;;;-1.74;100.00;98793.22;5046955;28;20152;-72
2023/01/17 07:56:23;;;;;;;29.10;11.10;;;;;;;-1.74;100.00;98794.94;5047795;28;20107;-73
2023/01/17 07:58:49;;;;;;;25.00;10.43;;;;;;;-1.74;100.00;98793.22;5048146;28;20024;-72
2023/01/17 08:01:15;;;;;;;30.80;11.57;;;;;;;-1.72;100.00;98796.63;5045529;28;20037;-72
2023/01/17 08:03:40;;;;;;;36.42;12.73;;;;;;;-1.70;100.00;98782.19;5046091;28;20025;-72
2023/01/17 08:06:19;;;;;;;28.88;11.25;;;;;;;-1.66;100.00;98785.56;5047776;28;20418;-73
2023/01/17 08:08:45;;;;;;;28.23;11.98;;;;;;;-1.64;100.00;98789.75;5040582;28;20033;-72
2023/01/17 08:11:11;;;;;;;30.02;11.70;;;;;;;-1.62;100.00;98787.22;5048586;28;20603;-72
2023/01/17 08:13:36;;;;;;;32.08;11.75;;;;;;;-1.58;100.00;98788.03;5067041;28;20059;-72
2023/01/17 08:16:02;;;;;;;34.40;12.05;;;;;;;-1.55;100.00;98786.28;5067626;28;20025;-72
2023/01/17 08:18:29;;;;;;;28.55;11.73;;;;;;;-1.51;100.00;98794.75;5066744;28;20032;-72
2023/01/17 08:20:54;;;;;;;31.20;11.63;;;;;;;-1.47;100.00;98791.31;5067304;28;20024;-72
2023/01/17 08:23:20;;;;;;;33.30;12.73;;;;;;;-1.43;100.00;98783.66;5067200;28;20035;-72
2023/01/17 08:25:46;;;;;;;33.35;13.07;;;;;;;-1.39;100.00;98787.03;5065768;28;20020;-72
2023/01/17 08:28:11;;;;;;;33.15;12.05;;;;;;;-1.36;100.00;98784.44;5066218;28;21395;-72
2023/01/17 08:30:37;;;;;;;31.25;12.18;;;;;;;-1.34;100.00;98785.28;5048817;28;20031;-72
2023/01/17 08:33:02;;;;;;;36.50;14.00;;;;;;;-1.31;100.00;98782.72;5065031;28;20119;-72
2023/01/17 08:35:28;;;;;;;33.78;12.90;;;;;;;-1.23;100.00;98793.66;5067013;28;20033;-72
2023/01/17 08:37:55;;;;;;;36.67;13.23;;;;;;;-1.16;100.00;98791.91;5067033;28;20028;-72
2023/01/17 08:40:21;;;;;;;42.15;13.77;;;;;;;-1.10;100.00;98794.38;5066045;28;20028;-72
2023/01/17 08:42:53;;;;;;;35.03;13.57;;;;;;;-1.05;100.00;98793.47;5066367;28;20043;-73
2023/01/17 08:45:18;;;;;;;34.97;13.35;;;;;;;-0.98;100.00;98791.69;5066919;28;20036;-72
2023/01/17 08:47:44;;;;;;;37.58;14.38;;;;;;;-0.92;100.00;98796.72;5066365;28;20069;-72
2023/01/17 08:50:09;;;;;;;37.95;13.60;;;;;;;-0.88;100.00;98790.72;5066099;28;20124;-72
2023/01/17 08:52:35;;;;;;;31.38;13.05;;;;;;;-0.78;100.00;98799.94;5065996;28;20050;-72
2023/01/17 08:55:00;;;;;;;36.58;14.48;;;;;;;-0.73;100.00;98804.97;5066039;28;20114;-72
2023/01/17 08:57:26;;;;;;;35.60;14.48;;;;;;;-0.71;100.00;98798.19;5048384;28;20054;-72
2023/01/17 08:59:51;;;;;;;37.72;14.15;;;;;;;-0.67;100.00;98799.81;5066413;28;20492;-72
2023/01/17 09:02:18;;;;;;;42.75;14.18;;;;;;;-0.64;100.00;98794.72;5063793;28;20028;-72
2023/01/17 09:04:45;;;;;;;37.78;14.10;;;;;;;-0.60;100.00;98802.28;5048372;28;20167;-72
2023/01/17 09:07:10;;;;;;;36.08;14.43;;;;;;;-0.57;100.00;98804.78;5039322;28;20059;-72
2023/01/17 09:09:36;;;;;;;39.05;13.82;;;;;;;-0.55;100.00;98804.78;5065346;28;20060;-72
2023/01/17 09:12:01;;;;;;;36.35;14.55;;;;;;;-0.58;100.00;98800.56;5065225;28;20032;-72
2023/01/17 09:14:26;;;;;;;35.65;13.55;;;;;;;-0.58;100.00;98808.19;5064625;28;20043;-72
2023/01/17 09:16:52;;;;;;;35.63;14.50;;;;;;;-0.59;100.00;98816.69;5066292;28;20474;-72
2023/01/17 09:19:17;;;;;;;37.50;13.88;;;;;;;-0.59;100.00;98816.69;5064252;28;20536;-72
2023/01/17 09:21:42;;;;;;;36.95;13.73;;;;;;;-0.61;100.00;98812.47;5066008;28;20063;-72
2023/01/17 09:24:08;;;;;;;38.78;15.25;;;;;;;-0.60;100.00;98816.69;5065810;28;20032;-72
2023/01/17 09:26:33;;;;;;;34.42;13.75;;;;;;;-0.58;100.00;98820.91;5048212;28;20017;-72
2023/01/17 09:28:58;;;;;;;36.10;13.35;;;;;;;-0.49;100.00;98822.53;5064796;28;20032;-72
2023/01/17 09:31:25;;;;;;;39.50;15.77;;;;;;;-0.42;100.00;98824.13;5066093;28;20016;-72
2023/01/17 09:33:52;;;;;;;33.55;13.95;;;;;;;-0.33;100.00;98829.09;5063903;28;20570;-72
2023/01/17 09:36:18;;;;;;;37.90;14.63;;;;;;;-0.21;100.00;98825.56;5064176;28;20044;-73
2023/01/17 09:38:44;;;;;;;41.35;14.30;;;;;;;-0.05;100.00;98827.88;5065764;28;20393;-73
2023/01/17 09:41:28;;;;;;;38.95;14.25;;;;;;;0.12;100.00;98834.44;5062893;28;20040;-73
2023/01/17 09:43:59;;;;;;;47.08;14.98;;;;;;;0.25;100.00;98831.69;5065740;28;20039;-72
2023/01/17 09:46:31;;;;;;;37.63;14.23;;;;;;;0.33;100.00;98839.25;5063913;28;20103;-72
2023/01/17 09:49:11;;;;;;;38.13;14.23;;;;;;;0.41;100.00;98829.75;5063569;28;20107;-72
2023/01/17 09:51:38;;;;;;;39.05;14.63;;;;;;;0.50;100.00;98837.25;5080138;28;20135;-72
2023/01/17 09:54:04;;;;;;;36.88;14.88;;;;;;;0.55;100.00;98839.72;5064984;28;20106;-73
2023/01/17 09:56:48;;;;;;;34.88;14.45;;;;;;;0.56;100.00;98832.06;5045411;28;20493;-72
2023/01/17 09:59:23;;;;;;;40.20;15.17;;;;;;;0.61;100.00;98843.03;5064246;28;20036;-72
2023/01/17 10:02:32;;;;;;;35.70;14.57;;;;;;;0.66;100.00;98835.31;5065665;28;20036;-72
2023/01/17 10:05:35;;;;;;;37.88;14.80;;;;;;;0.68;100.00;98834.41;5065204;28;20031;-72
2023/01/17 10:08:15;;;;;;;42.38;14.30;;;;;;;0.74;100.00;98839.44;5065683;28;20032;-72
2023/01/17 10:10:50;;;;;;;38.30;13.82;;;;;;;0.87;100.00;98842.63;5064882;28;20082;-72
2023/01/17 10:13:27;;;;;;;36.75;14.40;;;;;;;1.01;100.00;98840.66;5064975;28;20675;-72
2023/01/17 10:16:22;;;;;;;41.03;15.13;;;;;;;1.07;100.00;98842.25;5064908;28;20150;-72
2023/01/17 10:19:00;;;;;;;;;;;;;;;1.15;100.00;98846.38;5039588;28;20518;-72
2023/01/17 10:21:57;;;;;;;33.10;12.98;;;;;;;1.24;100.00;98840.22;5069653;28;20026;-72
2023/01/17 10:24:45;;;;;;;35.38;13.35;;;;;;;1.31;100.00;98841.81;5069141;28;20016;-72
2023/01/17 10:27:24;;;;;;;32.63;13.10;;;;;;;1.37;100.00;98828.94;5068030;28;20090;-72
2023/01/17 10:29:49;;;;;;;32.15;13.07;;;;;;;1.42;100.00;98839.91;5066852;28;20028;-72
2023/01/17 10:32:15;;;;;;;34.00;13.55;;;;;;;1.47;100.00;98830.44;5068801;28;20143;-72
2023/01/17 10:34:49;;;;;;;32.13;13.65;;;;;;;1.49;100.00;98833.81;5067378;28;20111;-72
2023/01/17 10:37:34;;;;;;;31.23;13.80;;;;;;;1.48;100.00;98827.03;5066513;28;20031;-72
2023/01/17 10:40:12;;;;;;;33.63;13.50;;;;;;;1.53;100.00;98829.47;5069087;28;20063;-72
2023/01/17 10:43:01;;;;;;;28.50;12.48;;;;;;;1.50;100.00;98830.38;5069124;28;20578;-72
2023/01/17 10:45:27;;;;;;;32.65;13.07;;;;;;;1.57;100.00;98833.63;5069061;28;20107;-72
2023/01/17 10:48:03;;;;;;;31.35;12.43;;;;;;;1.59;100.00;98840.41;5067235;28;20056;-72
2023/01/17 10:51:01;;;;;;;27.15;13.05;;;;;;;1.65;100.00;98841.16;5066775;28;20604;-72
2023/01/17 10:53:40;;;;;;;27.83;12.27;;;;;;;1.65;100.00;98838.59;5061925;28;20040;-72
2023/01/17 10:56:06;;;;;;;28.70;11.60;;;;;;;1.63;100.00;98836.09;5068975;28;20115;-72
2023/01/17 10:58:31;;;;;;;26.33;11.45;;;;;;;1.63;100.00;98835.25;5051296;28;20107;-72
2023/01/17 11:00:59;;;;;;;27.13;11.32;;;;;;;1.66;100.00;98842.84;5069041;28;20040;-71
2023/01/17 11:03:27;;;;;;;28.02;11.68;;;;;;;1.72;100.00;98832.50;5067779;28;20458;-72
2023/01/17 11:06:17;;;;;;;30.50;11.88;;;;;;;1.83;100.00;98825.47;5066585;28;20024;-72
2023/01/17 11:08:56;;;;;;;26.00;11.45;;;;;;;1.96;100.00;98834.56;5066368;28;20024;-72
2023/01/17 11:11:30;;;;;;;27.80;10.98;;;;;;;2.14;100.00;98823.91;5061171;28;20017;-72
2023/01/17 11:14:00;;;;;;;29.65;11.27;;;;;;;2.16;100.00;98824.75;5067984;28;20079;-72
2023/01/17 11:16:30;;;;;;;25.27;10.85;;;;;;;2.22;100.00;98819.50;5067914;28;20119;-72
2023/01/17 11:19:23;;;;;;;24.67;10.88;;;;;;;2.29;100.00;98826.13;5067491;28;20025;-72
2023/01/17 11:22:01;;;;;;;25.88;10.73;;;;;;;2.36;100.00;98822.56;5067972;28;20032;-72
2023/01/17 11:24:48;;;;;;;25.48;10.05;;;;;;;2.37;100.00;98829.38;5067826;28;20024;-72
2023/01/17 11:27:27;;;;;;;25.63;10.38;;;;;;;2.39;100.00;98819.91;5068501;28;20016;-72
2023/01/17 11:30:04;;;;;;;25.00;9.40;;;;;;;2.43;100.00;98828.38;5066848;28;20036;-72
2023/01/17 11:32:33;;;;;;;23.02;9.65;;;;;;;2.41;100.00;98821.59;5066332;28;20032;-72
2023/01/17 11:35:04;;;;;;;21.75;8.73;;;;;;;2.44;100.00;98829.22;5067831;28;20081;-72
2023/01/17 11:37:29;;;;;;;22.17;8.68;;;;;;;2.45;100.00;98818.13;5066660;28;20502;-71
2023/01/17 11:40:17;;;;;;;22.98;8.75;;;;;;;2.50;100.00;98823.97;5067817;28;20036;-72
2023/01/17 11:42:42;;;;;;;19.40;8.23;;;;;;;2.46;100.00;98823.19;5067625;28;20063;-72
2023/01/17 11:45:28;;;;;;;18.65;8.57;;;;;;;2.46;100.00;98817.25;5067339;28;20100;-72
2023/01/17 11:48:08;;;;;;;18.63;7.72;;;;;;;2.41;100.00;98819.06;5066405;28;20495;-72
2023/01/17 11:50:37;;;;;;;14.23;6.70;;;;;;;2.27;100.00;98817.66;5067052;28;20497;-72
2023/01/17 11:53:05;;;;;;;21.52;7.20;;;;;;;2.14;100.00;98821.38;5065791;28;20441;-72
2023/01/17 11:55:31;;;;;;;14.60;6.82;;;;;;;2.01;100.00;98819.13;5068134;28;20039;-72
2023/01/17 11:57:56;;;;;;;14.65;6.72;;;;;;;1.93;100.00;98817.56;5068375;28;20037;-77
2023/01/17 12:00:44;;;;;;;17.60;7.43;;;;;;;1.88;100.00;98811.72;5067064;28;20024;-77
2023/01/17 12:03:28;;;;;;;15.23;6.38;;;;;;;1.82;100.00;98813.56;5064623;28;20094;-78
2023/01/17 12:06:10;;;;;;;15.07;6.80;;;;;;;1.73;100.00;98822.25;5065667;28;20036;-77
2023/01/17 12:08:54;;;;;;;11.68;5.85;;;;;;;1.67;100.00;98813.88;5067748;28;20032;-77
2023/01/17 12:11:36;;;;;;;14.13;5.57;;;;;;;1.64;100.00;98822.44;5048889;28;20454;-77
2023/01/17 12:14:30;;;;;;;16.45;5.82;;;;;;;1.61;100.00;98814.00;5048517;28;20052;-77
2023/01/17 12:17:03;;;;;;;12.98;5.43;;;;;;;1.61;100.00;98814.84;5067623;28;20028;-77
2023/01/17 12:19:59;;;;;;;12.68;5.03;;;;;;;1.63;100.00;98815.66;5067287;28;20027;-77
2023/01/17 12:22:44;;;;;;;14.07;5.10;;;;;;;1.64;100.00;98812.22;5064294;28;20508;-77
2023/01/17 12:25:19;;;;;;;12.00;5.22;;;;;;;1.65;100.00;98811.34;5046717;28;20487;-77
2023/01/17 12:28:15;;;;;;;14.02;5.70;;;;;;;1.71;100.00;98812.94;5035448;28;20044;-77
2023/01/17 12:30:59;;;;;;;15.38;4.95;;;;;;;1.74;100.00;98810.34;5046006;28;20153;-77
2023/01/17 12:33:48;;;;;;;12.53;5.07;;;;;;;1.70;100.00;98804.47;5020656;28;20029;-77
2023/01/17 12:36:40;;;;;;;10.60;4.45;;;;;;;1.64;100.00;98802.00;5044162;28;20283;-78
2023/01/17 12:39:08;;;;;;;9.40;4.75;;;;;;;1.62;100.00;98798.66;4997442;28;20514;-77
2023/01/17 12:41:55;;;;;;;9.52;4.50;;;;;;;1.58;100.00;98795.31;5042287;28;20044;-77
2023/01/17 12:44:34;;;;;;;11.45;4.65;;;;;;;1.56;100.00;98796.25;5044627;28;20107;-77
2023/01/17 12:47:03;;;;;;;12.75;4.50;;;;;;;1.55;100.00;98800.50;5027720;28;20070;-77
2023/01/17 12:49:28;;;;;;;9.30;3.25;;;;;;;1.53;100.00;98798.84;5042774;28;20090;-78
2023/01/17 12:52:02;;;;;;;9.02;3.80;;;;;;;1.50;100.00;98797.19;5028149;28;20029;-76
2023/01/17 12:54:34;;;;;;;10.82;3.88;;;;;;;1.49;100.00;98798.06;5042517;28;20041;-78
2023/01/17 12:57:15;;;;;;;9.50;3.50;;;;;;;1.49;100.00;98798.06;5041688;28;20044;-77
2023/01/17 13:00:00;;;;;;;7.68;3.47;;;;;;;1.47;100.00;98799.81;5041456;28;20482;-77